FOON/MVB METAR and TAF weather

Enter ICAO airport designator
Station Type Date Time Source
FOON METAR 2019/02/20 07:00 UTC NOAA

FOON 200700Z 00000KT 9999 FEW008 22/22 Q1011


Station Type Date Time Source
FOON Decoded METAR 2019/02/20 07:00 UTC NOAA

Franceville / Mvengue, Gabon (FOON) 01-39S 013-26E
Feb 20, 2019 - 02:00 AM EST / 2019.02.20 0700 UTC
Wind: Calm:0
Visibility: greater than 7 mile(s):0
Sky conditions: mostly clear
Temperature: 71 F (22 C)
Dew Point: 71 F (22 C)
Relative Humidity: 100%
Pressure (altimeter): 29.85 in. Hg (1011 hPa)
ob: FOON 200700Z 00000KT 9999 FEW008 22/22 Q1011
cycle: 7

Station Type Date Time Source
FOON TAF 2012/02/17 18:21 UTC NOAA

TAF TAF FOON 151600Z 1518/1618 20004KT 9999 BKN006
TEMPO 1603/1607 0200 FG OVC002
BECMG 1612/1614 TS SCT015 FEW020CB BKN030


Example: see airport list